This is the latest recevied weather packets stored in our database for station/object KJ4EBE. If no packets are shown the sender has not sent any weather packets the latest 10 day(s).
| Time | Temp. | Humidity | Pressure | Rain* | Wind** | Luminosity | Snow |
|---|---|---|---|---|---|---|---|
| 1778016179 | 31.11° C | 63% | 1005.5 hPa | 0 mm | - | 437 W/m² | - |
| 1778015875 | 31.11° C | 64% | 1005.4 hPa | 0 mm | - | 388 W/m² | - |
| 1778015573 | 31.11° C | 65% | 1005.4 hPa | 0 mm | - | 401 W/m² | - |
| 1778015269 | 32.78° C | 60% | 1005.5 hPa | 0 mm | - | 508 W/m² | - |
| 1778014966 | 31.67° C | 66% | 1005.5 hPa | 0 mm | - | 609 W/m² | - |
| 1778014663 | 31.67° C | 62% | 1005.5 hPa | 0 mm | - | 477 W/m² | - |
| 1778014362 | 31.11° C | 64% | 1005.6 hPa | 0 mm | - | 564 W/m² | - |
| 1778014058 | 31.67° C | 64% | 1005.7 hPa | 0 mm | - | 467 W/m² | - |
| 1778013756 | 31.11° C | 65% | 1005.9 hPa | 0 mm | - | 533 W/m² | - |
| 1778013453 | 31.67° C | 65% | 1006 hPa | 0 mm | - | 457 W/m² | - |
| 1778013150 | 31.11° C | 64% | 1006 hPa | 0 mm | - | 642 W/m² | - |
| 1778012845 | 31.67° C | 63% | 1006 hPa | 0 mm | - | 636 W/m² | - |
| 1778012542 | 31.11° C | 64% | 1005.8 hPa | 0 mm | - | 382 W/m² | - |
| 1778012238 | 31.11° C | 63% | 1005.9 hPa | 0 mm | - | 763 W/m² | - |
| 1778011936 | 31.11° C | 64% | 1005.7 hPa | 0 mm | - | 651 W/m² | - |
| 1778011634 | 31.67° C | 62% | 1005.9 hPa | 0 mm | - | 497 W/m² | - |
| 1778011331 | 31.67° C | 64% | 1005.8 hPa | 0 mm | - | 759 W/m² | - |
| 1778011026 | 31.67° C | 63% | 1005.8 hPa | 0 mm | - | 703 W/m² | - |
| 1778010724 | 31.11° C | 64% | 1006 hPa | 0 mm | - | 752 W/m² | - |
| 1778010421 | 30.56° C | 66% | 1006.1 hPa | 0 mm | - | 706 W/m² | - |
| 1778010117 | 30.56° C | 64% | 1006.1 hPa | 0 mm | - | 597 W/m² | - |
| 1778009814 | 30.56° C | 64% | 1006 hPa | 0 mm | - | 627 W/m² | - |
| 1778009511 | 30.56° C | 65% | 1006.1 hPa | 0 mm | - | 733 W/m² | - |
| 1778009209 | 30° C | 66% | 1006.4 hPa | 0 mm | - | 679 W/m² | - |
| 1778008907 | 30° C | 66% | 1006.3 hPa | 0 mm | - | 683 W/m² | - |
* Rain latest hour (hover to see other rain measurements)
** Current wind speed in m/s (hover to see current wind gust speed)